• Join FlightAware (Why Join?)
  • Login
  • US Flag 
05:40AM EDT


 

Airport Tracker/Info


-or-


 

Live Flight TrackerFlight Track Log ✈ EJM826 ✈ 2013年12月18日 ✈ KHOU - KIAD

Flight Track Log - Related Links

Times and Time Zones

All times are in EST time to prevent confusion due to time zone crossing. See the EJM826 flight status page for this flight to view local times or setup timezone preferences in your user account.

Time Position Orientation Groundspeed Altitude Reporting Facility
EST Latitude Longitude Course Direction KTS MPH feet Rate Location/Type
08:53AM 29.6603 -95.2619 North 117 135 600  Level Houston Center
08:54AM 29.7203 -95.2525 North 212 244 2,900 1,920 Climbing Houston Center
08:55AM 29.7619 -95.2506 North 226 260 4,000 1,860 Climbing Houston Center
08:55AM 29.7917 -95.2533 355° North 280 322 4,800 2,760 Climbing Houston Center
08:56AM 29.8386 -95.2581 355° North 272 313 6,900 3,360 Climbing Houston Center
08:56AM 29.8786 -95.2619 355° North 266 306 8,600 2,700 Climbing Houston Center
08:57AM 29.9144 -95.2658 355° North 269 310 9,700 2,160 Climbing Houston Center
08:57AM 29.9486 -95.2703 354° North 280 322 10,600 1,980 Climbing Houston Center
08:58AM 29.9922 -95.2631 North 287 330 11,800 1,740 Climbing Houston Center
08:59AM 30.0717 -95.2392 15° North 296 341 13,600 1,800 Climbing Houston Center
09:00AM 30.1461 -95.1828 33° Northeast 317 365 15,600 1,800 Climbing Houston Center
09:01AM 30.2256 -95.1292 30° Northeast 327 376 17,400 1,680 Climbing Houston Center
09:02AM 30.3219 -95.0622 31° Northeast 336 387 19,100 1,500 Climbing Houston Center
09:03AM 30.4069 -95.0047 30° Northeast 350 403 20,600 1,500 Climbing Houston Center
09:04AM 30.4928 -94.9383 34° Northeast 363 418 22,300 1,680 Climbing Houston Center
09:05AM 30.5775 -94.8725 34° Northeast 367 422 24,100 1,500 Climbing Houston Center
09:06AM 30.6619 -94.8086 33° Northeast 364 419 25,500 1,260 Climbing Houston Center
09:07AM 30.7489 -94.7408 34° Northeast 374 430 26,800 1,320 Climbing Houston Center
09:08AM 30.8556 -94.6594 33° Northeast 380 437 28,300 1,200 Climbing Houston Center
09:09AM 30.9456 -94.5889 34° Northeast 388 447 29,400 1,020 Climbing Houston Center
09:10AM 31.0369 -94.5172 34° Northeast 396 456 30,500 1,080 Climbing Houston Center
09:11AM 31.1297 -94.4456 33° Northeast 403 464 31,700 1,200 Climbing Houston Center
09:12AM 31.2433 -94.3578 33° Northeast 411 473 33,100 1,320 Climbing Houston Center
09:13AM 31.3378 -94.2833 34° Northeast 411 473 34,500 1,260 Climbing Houston Center
09:14AM 31.4303 -94.2114 34° Northeast 405 466 35,800 1,260 Climbing Houston Center
09:15AM 31.5225 -94.1386 34° Northeast 401 461 37,200 1,140 Climbing Houston Center
09:16AM 31.6144 -94.0667 34° Northeast 399 459 38,200 900 Climbing Houston Center
09:17AM 31.7050 -93.9942 34° Northeast 395 455 39,100 900 Climbing Houston Center
09:18AM 31.7925 -93.8686 51° Northeast 414 476 40,100 840 Climbing Houston Center
09:19AM 31.8644 -93.7625 51° Northeast 414 476 40,900 420 Climbing Houston Center
09:20AM 31.9347 -93.6556 52° Northeast 414 476 41,000  Climbing Houston Center
09:22AM 32.0097 -93.5447 51° Northeast 424 488 41,000  Level Houston Center
09:23AM 32.0853 -93.4300 52° Northeast 435 501 41,000  Level Houston Center
09:24AM 32.1619 -93.3136 52° Northeast 443 510 41,000  Level Houston Center
09:25AM 32.2556 -93.1714 52° Northeast 452 520 41,000  Level Houston Center
09:26AM 32.3328 -93.0506 53° Northeast 456 525 41,000  Level Fort Worth Center
09:27AM 32.4114 -92.9319 52° Northeast 456 525 41,000  Level Fort Worth Center
09:28AM 32.4925 -92.8047 53° Northeast 452 520 41,000  Level Fort Worth Center
09:29AM 32.5683 -92.6875 52° Northeast 452 520 41,000  Level Fort Worth Center
09:30AM 32.6453 -92.5689 52° Northeast 454 522 41,000  Level Fort Worth Center
09:31AM 32.7192 -92.4497 54° Northeast 451 519 41,000  Level Fort Worth Center
09:32AM 32.7967 -92.3311 52° Northeast 454 522 41,000  Level Fort Worth Center
09:33AM 32.8872 -92.1878 53° Northeast 452 520 41,000  Level Fort Worth Center
09:34AM 32.9467 -92.0931 53° Northeast 453 521 41,000  Level Memphis Center
09:35AM 33.0253 -91.9719 52° Northeast 454 522 41,000  Level Memphis Center
09:36AM 33.1011 -91.8522 53° Northeast 455 524 41,000  Level Memphis Center
09:37AM 33.1767 -91.7311 53° Northeast 456 525 41,000  Level Memphis Center
09:38AM 33.2533 -91.6094 53° Northeast 459 528 41,000  Level Memphis Center
09:39AM 33.3308 -91.4878 53° Northeast 461 531 41,000  Level Memphis Center
09:40AM 33.4217 -91.3422 53° Northeast 458 527 41,000  Level Memphis Center
09:41AM 33.4975 -91.2203 53° Northeast 458 527 41,000  Level Memphis Center
09:42AM 33.5719 -91.0972 54° Northeast 458 527 41,000  Level Memphis Center
09:43AM 33.6483 -90.9753 53° Northeast 457 526 41,000  Level Memphis Center
09:44AM 33.7242 -90.8517 54° Northeast 460 529 41,000  Level Memphis Center
09:45AM 33.8144 -90.7042 54° Northeast 458 527 41,000  Level Memphis Center
09:46AM 33.8947 -90.5708 54° Northeast 461 531 41,000  Level Memphis Center
09:47AM 33.9717 -90.4456 53° Northeast 462 532 41,000  Level Memphis Center
09:48AM 34.0481 -90.3197 54° Northeast 462 532 41,000  Level Memphis Center
09:49AM 34.1247 -90.1933 54° Northeast 463 533 41,000  Level Memphis Center
09:50AM 34.2006 -90.0658 54° Northeast 464 534 41,000  Level Memphis Center
09:51AM 34.2908 -89.9600 44° Northeast 450 518 41,000  Level Memphis Center
09:52AM 34.4028 -89.8469 40° Northeast 446 513 41,000  Level Memphis Center
09:53AM 34.4989 -89.7511 39° Northeast 445 512 41,000  Level Memphis Center
09:54AM 34.5936 -89.6550 40° Northeast 444 511 41,000  Level Memphis Center
09:55AM 34.6872 -89.5589 40° Northeast 443 510 41,000  Level Memphis Center
09:57AM 34.7658 -89.4383 52° Northeast 459 528 41,000  Level Memphis Center
09:58AM 34.8464 -89.2844 57° Northeast 461 531 41,000  Level Memphis Center
09:59AM 34.9156 -89.1492 58° Northeast 466 536 41,000  Level Memphis Center
10:00AM 34.9850 -89.0169 57° Northeast 463 533 41,000  Level Memphis Center
10:01AM 35.0539 -88.8822 58° Northeast 464 534 41,000  Level Memphis Center
10:02AM 35.1233 -88.7467 58° Northeast 466 536 41,000  Level Memphis Center
10:03AM 35.1917 -88.6097 59° Northeast 467 537 41,000  Level Memphis Center
10:04AM 35.2600 -88.4750 58° Northeast 466 536 41,000  Level Memphis Center
10:05AM 35.3414 -88.3119 59° Northeast 466 536 41,000  Level Memphis Center
10:06AM 35.4083 -88.1803 58° Northeast 465 535 41,000  Level Memphis Center
10:07AM 35.4744 -88.0469 59° Northeast 464 534 41,000  Level Memphis Center
10:08AM 35.5422 -87.9103 59° Northeast 465 535 41,000  Level Memphis Center
10:09AM 35.6100 -87.7719 59° Northeast 467 537 41,000  Level Memphis Center
10:10AM 35.6892 -87.6117 59° Northeast 467 537 41,000  Level Memphis Center
10:11AM 35.7569 -87.4733 59° Northeast 467 537 41,000  Level Memphis Center
10:12AM 35.8244 -87.3344 59° Northeast 469 540 41,000  Level Memphis Center
10:13AM 35.8911 -87.1961 59° Northeast 467 537 41,000  Level Memphis Center
10:14AM 35.9592 -87.0564 59° Northeast 469 540 41,000  Level Memphis Center
10:15AM 36.0267 -86.9158 59° Northeast 474 545 41,000  Level Memphis Center
10:16AM 36.1056 -86.7508 59° Northeast 477 549 41,000  Level Memphis Center
10:17AM 36.1639 -86.6031 64° Northeast 481 554 41,000  Level Memphis Center
10:18AM 36.2128 -86.4461 69° East 487 560 41,000  Level Memphis Center
10:19AM 36.2647 -86.2883 68° East 491 565 41,000  Level Memphis Center
10:20AM 36.3153 -86.1311 68° East 491 565 41,000  Level Memphis Center
10:21AM 36.3669 -85.9714 68° East 493 567 41,000  Level Memphis Center
10:22AM 36.4175 -85.8108 69° East 496 571 41,000  Level Memphis Center
10:23AM 36.4786 -85.6172 69° East 498 573 41,000  Level Memphis Center
10:24AM 36.5300 -85.4569 68° East 498 573 41,000  Level Memphis Center
10:26AM 36.5794 -85.2964 69° East 496 571 41,000  Level Memphis Center
10:27AM 36.6300 -85.1333 69° East 500 575 41,000  Level Memphis Center
10:28AM 36.6900 -84.9356 69° East 500 575 41,000  Level Indianapolis Center
10:29AM 36.7397 -84.7703 69° East 506 582 41,000  Level Indianapolis Center
10:30AM 36.7894 -84.6061 69° East 505 581 41,000  Level Indianapolis Center
10:31AM 36.8392 -84.4447 69° East 497 572 41,000  Level Indianapolis Center
10:32AM 36.8875 -84.2847 69° East 493 567 41,000  Level Indianapolis Center
10:33AM 36.9439 -84.0969 69° East 494 568 41,000  Level Indianapolis Center
10:34AM 36.9928 -83.9342 69° East 498 573 41,000  Level Indianapolis Center
10:35AM 37.0414 -83.7719 69° East 498 573 41,000  Level Indianapolis Center
10:36AM 37.0897 -83.6064 70° East 504 580 41,000  Level Indianapolis Center
10:37AM 37.1383 -83.4411 70° East 505 581 41,000  Level Indianapolis Center
10:38AM 37.1856 -83.2742 70° East 503 579 41,000  Level Indianapolis Center
10:39AM 37.2411 -83.0803 70° East 503 579 41,000  Level Indianapolis Center
10:40AM 37.2886 -82.9147 70° East 500 575 41,000  Level Indianapolis Center
10:41AM 37.3358 -82.7506 70° East 497 572 41,000  Level Indianapolis Center
10:42AM 37.3822 -82.5872 70° East 494 568 41,000  Level Indianapolis Center
10:43AM 37.4275 -82.4225 71° East 495 570 41,000  Level Indianapolis Center
10:44AM 37.4747 -82.2592 70° East 495 570 41,000  Level Indianapolis Center
10:45AM 37.5194 -82.0950 71° East 496 571 41,000  Level Indianapolis Center
10:46AM 37.5708 -81.9056 71° East 490 564 41,000  Level Indianapolis Center
10:47AM 37.6153 -81.7428 71° East 490 564 41,000  Level Indianapolis Center
10:48AM 37.6600 -81.5817 71° East 487 560 41,000  Level Indianapolis Center
10:49AM 37.7033 -81.4156 72° East 486 559 41,000  Level Indianapolis Center
10:50AM 37.7456 -81.2575 71° East 485 558 41,000  Level Indianapolis Center
10:51AM 37.7989 -81.0692 70° East 485 558 41,000 -1,140 Level Indianapolis Center
10:53AM 37.8508 -80.9267 65° Northeast 488 562 38,700 -1,920 Descending Indianapolis Center
10:54AM 37.9083 -80.7636 66° East 506 582 37,100 -840 Descending Indianapolis Center
10:55AM 37.9781 -80.6117 60° Northeast 504 580 37,000 -60 Descending Indianapolis Center
10:55AM 38.0422 -80.4828 58° Northeast 497 572 37,000  Level Washington Center
10:56AM 38.1197 -80.3164 59° Northeast 502 578 37,000 -900 Level Washington Center
10:57AM 38.1903 -80.1703 58° Northeast 491 565 35,200 -1,980 Descending Washington Center
10:58AM 38.2603 -80.0264 58° Northeast 480 552 33,100 -2,220 Descending Washington Center
10:59AM 38.3258 -79.8822 60° Northeast 475 547 30,800 -2,400 Descending Washington Center
11:00AM 38.3914 -79.7403 59° Northeast 470 541 28,400 -2,400 Descending Washington Center
11:01AM 38.4547 -79.5978 60° Northeast 464 534 26,000 -2,160 Descending Washington Center
11:02AM 38.5047 -79.4733 63° Northeast 451 519 24,100 -1,020 Descending Washington Center
11:03AM 38.5367 -79.3208 75° East 444 511 24,000 -120 Descending Washington Center
11:04AM 38.5664 -79.1606 77° East 444 511 23,900 -1,200 Descending Washington Center
11:05AM 38.5961 -79.0025 76° East 450 518 21,600 -2,340 Descending Washington Center
11:06AM 38.6211 -78.8522 78° East 444 511 19,200 -2,460 Descending Washington Center
11:07AM 38.6517 -78.7181 74° East 418 481 16,800 -2,640 Descending Washington Center
11:08AM 38.6822 -78.5861 73° East 398 458 14,100 -2,760 Descending Washington Center
11:09AM 38.7125 -78.4569 73° East 375 432 11,300 -1,680 Descending Washington Center
11:10AM 38.7483 -78.3519 66° East 350 403 10,800 -780 Descending Washington Center
11:11AM 38.8042 -78.2769 46° Northeast 307 353 9,800 -1,020 Descending Washington Center
11:12AM 38.8561 -78.1961 50° Northeast 295 339 8,900 -1,200 Descending Washington Center
11:13AM 38.8811 -78.0931 73° East 290 334 7,400 -1,200 Descending Washington Center
11:14AM 38.9061 -77.9950 72° East 290 334 6,500 -780 Descending Washington Center
11:15AM 38.9286 -77.9053 72° East 279 321 5,900 -300 Descending Washington Center
11:16AM 38.9556 -77.8019 71° East 279 321 5,900  Level Washington Center
11:19AM 38.9333 -77.6167 99° East 273 314 6,000  Climbing Potomac TRACON
11:19AM 38.8833 -77.5833 153° Southeast 257 296 5,900  Descending Potomac TRACON
11:20AM 38.8167 -77.5833 180° South 215 247 6,000 -240 Climbing Potomac TRACON
11:21AM 38.7500 -77.5833 180° South 214 246 5,500 -600 Descending Potomac TRACON
11:22AM 38.7000 -77.5667 165° South 201 231 4,800 -780 Descending Potomac TRACON
11:23AM 38.6833 -77.5000 108° East 196 226 4,000 -420 Descending Potomac TRACON
11:24AM 38.7000 -77.4500 67° East 209 241 4,000  Level Potomac TRACON
11:25AM 38.7500 -77.4667 345° North 172 198 4,000 -240 Level Potomac TRACON
11:26AM 38.7833 -77.4667 360° North 131 151 3,600 -600 Descending Potomac TRACON
11:27AM 38.8167 -77.4667 360° North 138 159 2,900 -780 Descending Potomac TRACON
11:28AM 38.8667 -77.4667 360° North 134 154 2,100 -900 Descending Potomac TRACON
11:29AM 38.9000 -77.4667 360° North 130 150 1,200 -840 Descending Potomac TRACON
11:30AM 38.9333 -77.4667 360° North 127 146 500 -720 Descending Potomac TRACON
11:32AM 38.9380 -77.4523 159° South  Level FlightAware Approximate
11:39AM 38.9333 -77.4500 159° South  Level FlightAware Approximate
11:40AM 38.9474 -77.4599 159° South  Level Estimated
11:41AM 38.9474 -77.4599 159° South  Level Estimated
11:42AM 38.9474 -77.4599 159° South  Level Estimated
11:43AM 38.9474 -77.4599 159° South  Level Estimated
11:44AM 38.9474 -77.4599 159° South  Level Estimated
11:45AM 38.9474 -77.4599 159° South  Level Estimated
11:46AM 38.9474 -77.4599 159° South  Level Estimated
11:47AM 38.9474 -77.4599 159° South  Level Estimated
11:48AM 38.9474 -77.4599 159° South  Level Estimated
11:49AM 38.9474 -77.4599 159° South  Level Estimated
11:50AM 38.9474 -77.4599 159° South  Level Estimated
11:51AM 38.9474 -77.4599 159° South  Level Estimated
11:52AM 38.9474 -77.4599 159° South  Level Estimated
11:53AM 38.9474 -77.4599 159° South  Level Estimated